< < Back
Terminal Aerodrome Forecast


Current Version              Previous Versions:   1  2  3  4  5  6  7  8  9  

Terminal Aerodrome Forecast

608
FTUS42 KTAE 260500
TAFABY
TAF
KABY 260521Z 2606/2706 33009KT 6SM -RA BR SCT025 OVC050
      TEMPO 2606/2610 5SM -RA BR SCT015 BKN025
     FM261000 32007KT 5SM BR SCT015 BKN050
     FM261400 30010KT P6SM SKC
     FM262200 23005KT P6SM SKC=

Latest METAR

342
SAUS70 KWBC 260900 RRB
MTRABY
METAR KABY 260853Z 29004KT 7SM FEW075 OVC095 08/08 A3003 RMK AO2 SLP170
P0003 60013 T00830078 55007 $


USA.gov is the U.S. government's official web portal to all federal, state and local government web resources and services.